sensor_id;sensor_type;location;lat;lon;timestamp;temperature;humidity
21627;DHT22;10975;47.872;12.972;2023-11-21T00:01:19;8.40;99.90
21627;DHT22;10975;47.872;12.972;2023-11-21T00:03:46;8.50;99.90
21627;DHT22;10975;47.872;12.972;2023-11-21T00:06:13;8.50;99.90
21627;DHT22;10975;47.872;12.972;2023-11-21T00:08:41;8.40;99.90
21627;DHT22;10975;47.872;12.972;2023-11-21T00:11:08;8.40;99.90
21627;DHT22;10975;47.872;12.972;2023-11-21T00:13:34;8.40;99.90
21627;DHT22;10975;47.872;12.972;2023-11-21T00:16:01;8.50;99.90
21627;DHT22;10975;47.872;12.972;2023-11-21T00:18:28;8.50;99.90
21627;DHT22;10975;47.872;12.972;2023-11-21T00:20:55;8.50;99.90
21627;DHT22;10975;47.872;12.972;2023-11-21T00:23:22;8.40;99.90
21627;DHT22;10975;47.872;12.972;2023-11-21T00:25:48;8.40;99.90
21627;DHT22;10975;47.872;12.972;2023-11-21T00:28:15;8.40;99.90
21627;DHT22;10975;47.872;12.972;2023-11-21T00:30:42;8.40;99.90
21627;DHT22;10975;47.872;12.972;2023-11-21T00:33:08;8.30;99.90
21627;DHT22;10975;47.872;12.972;2023-11-21T00:35:35;8.30;99.90
21627;DHT22;10975;47.872;12.972;2023-11-21T00:38:02;8.30;99.90
21627;DHT22;10975;47.872;12.972;2023-11-21T00:40:29;8.30;99.90
21627;DHT22;10975;47.872;12.972;2023-11-21T00:42:58;8.20;99.90
21627;DHT22;10975;47.872;12.972;2023-11-21T00:45:24;8.20;99.90
21627;DHT22;10975;47.872;12.972;2023-11-21T00:47:51;8.20;99.90
21627;DHT22;10975;47.872;12.972;2023-11-21T00:50:18;8.20;99.90
21627;DHT22;10975;47.872;12.972;2023-11-21T00:52:45;8.10;99.90
21627;DHT22;10975;47.872;12.972;2023-11-21T00:55:12;8.20;99.90
21627;DHT22;10975;47.872;12.972;2023-11-21T00:57:40;8.20;99.90
21627;DHT22;10975;47.872;12.972;2023-11-21T01:00:07;8.20;99.90
21627;DHT22;10975;47.872;12.972;2023-11-21T01:02:39;8.20;99.90
21627;DHT22;10975;47.872;12.972;2023-11-21T01:05:06;8.20;99.90
21627;DHT22;10975;47.872;12.972;2023-11-21T01:07:34;8.10;99.90
21627;DHT22;10975;47.872;12.972;2023-11-21T01:10:01;8.10;99.90
21627;DHT22;10975;47.872;12.972;2023-11-21T01:12:28;8.10;99.90
21627;DHT22;10975;47.872;12.972;2023-11-21T01:14:55;8.00;99.90
21627;DHT22;10975;47.872;12.972;2023-11-21T01:17:22;8.00;99.90
21627;DHT22;10975;47.872;12.972;2023-11-21T01:19:49;8.00;99.90
21627;DHT22;10975;47.872;12.972;2023-11-21T01:22:16;7.90;99.90
21627;DHT22;10975;47.872;12.972;2023-11-21T01:24:43;7.80;99.90
21627;DHT22;10975;47.872;12.972;2023-11-21T01:27:09;7.80;99.90
21627;DHT22;10975;47.872;12.972;2023-11-21T01:29:36;7.70;99.90
21627;DHT22;10975;47.872;12.972;2023-11-21T01:32:04;7.70;99.90
21627;DHT22;10975;47.872;12.972;2023-11-21T01:34:30;7.60;99.90
21627;DHT22;10975;47.872;12.972;2023-11-21T01:36:57;7.70;99.90
21627;DHT22;10975;47.872;12.972;2023-11-21T01:39:24;7.60;99.90
21627;DHT22;10975;47.872;12.972;2023-11-21T01:41:52;7.70;99.90
21627;DHT22;10975;47.872;12.972;2023-11-21T01:44:19;7.70;99.90
21627;DHT22;10975;47.872;12.972;2023-11-21T01:46:46;7.80;99.90
21627;DHT22;10975;47.872;12.972;2023-11-21T01:49:14;7.70;99.90
21627;DHT22;10975;47.872;12.972;2023-11-21T01:51:41;7.70;99.90
21627;DHT22;10975;47.872;12.972;2023-11-21T01:54:10;7.60;99.90
21627;DHT22;10975;47.872;12.972;2023-11-21T01:56:45;7.50;99.90
21627;DHT22;10975;47.872;12.972;2023-11-21T01:59:13;7.60;99.90
21627;DHT22;10975;47.872;12.972;2023-11-21T02:01:42;7.60;99.90
21627;DHT22;10975;47.872;12.972;2023-11-21T02:04:10;7.60;99.90
21627;DHT22;10975;47.872;12.972;2023-11-21T02:06:37;7.60;99.90
21627;DHT22;10975;47.872;12.972;2023-11-21T02:09:04;7.70;99.90
21627;DHT22;10975;47.872;12.972;2023-11-21T02:11:31;7.70;99.90
21627;DHT22;10975;47.872;12.972;2023-11-21T02:14:01;7.70;99.90
21627;DHT22;10975;47.872;12.972;2023-11-21T02:16:28;7.60;99.90
21627;DHT22;10975;47.872;12.972;2023-11-21T02:18:58;7.60;99.90
21627;DHT22;10975;47.872;12.972;2023-11-21T02:21:25;7.60;99.90
21627;DHT22;10975;47.872;12.972;2023-11-21T02:23:52;7.60;99.90
21627;DHT22;10975;47.872;12.972;2023-11-21T02:26:18;7.60;99.90
21627;DHT22;10975;47.872;12.972;2023-11-21T02:28:46;7.60;99.90
21627;DHT22;10975;47.872;12.972;2023-11-21T02:31:14;7.60;99.90
21627;DHT22;10975;47.872;12.972;2023-11-21T02:33:41;7.50;99.90
21627;DHT22;10975;47.872;12.972;2023-11-21T02:36:09;7.50;99.90
21627;DHT22;10975;47.872;12.972;2023-11-21T02:38:35;7.50;99.90
21627;DHT22;10975;47.872;12.972;2023-11-21T02:41:02;7.50;99.90
21627;DHT22;10975;47.872;12.972;2023-11-21T02:43:29;7.50;99.90
21627;DHT22;10975;47.872;12.972;2023-11-21T02:45:56;7.50;99.90
21627;DHT22;10975;47.872;12.972;2023-11-21T02:48:23;7.40;99.90
21627;DHT22;10975;47.872;12.972;2023-11-21T02:50:52;7.30;99.90
21627;DHT22;10975;47.872;12.972;2023-11-21T02:53:20;7.30;99.90
21627;DHT22;10975;47.872;12.972;2023-11-21T02:55:46;7.30;99.90
21627;DHT22;10975;47.872;12.972;2023-11-21T02:58:13;7.40;99.90
21627;DHT22;10975;47.872;12.972;2023-11-21T03:00:40;7.40;99.90
21627;DHT22;10975;47.872;12.972;2023-11-21T03:03:08;7.30;99.90
21627;DHT22;10975;47.872;12.972;2023-11-21T03:05:35;7.20;99.90
21627;DHT22;10975;47.872;12.972;2023-11-21T03:08:03;7.10;99.90
21627;DHT22;10975;47.872;12.972;2023-11-21T03:10:30;7.20;99.90
21627;DHT22;10975;47.872;12.972;2023-11-21T03:12:57;7.20;99.90
21627;DHT22;10975;47.872;12.972;2023-11-21T03:15:24;7.20;99.90
21627;DHT22;10975;47.872;12.972;2023-11-21T03:17:51;7.10;99.90
21627;DHT22;10975;47.872;12.972;2023-11-21T03:20:17;7.10;99.90
21627;DHT22;10975;47.872;12.972;2023-11-21T03:22:44;7.10;99.90
21627;DHT22;10975;47.872;12.972;2023-11-21T03:25:11;7.10;99.90
21627;DHT22;10975;47.872;12.972;2023-11-21T03:27:38;7.10;99.90
21627;DHT22;10975;47.872;12.972;2023-11-21T03:30:07;7.10;99.90
21627;DHT22;10975;47.872;12.972;2023-11-21T03:32:35;7.10;99.90
21627;DHT22;10975;47.872;12.972;2023-11-21T03:35:02;7.10;99.90
21627;DHT22;10975;47.872;12.972;2023-11-21T03:37:30;7.10;99.90
21627;DHT22;10975;47.872;12.972;2023-11-21T03:39:57;7.10;99.90
21627;DHT22;10975;47.872;12.972;2023-11-21T03:42:24;7.10;99.90
21627;DHT22;10975;47.872;12.972;2023-11-21T03:44:53;7.10;99.90
21627;DHT22;10975;47.872;12.972;2023-11-21T03:47:20;7.10;99.90
21627;DHT22;10975;47.872;12.972;2023-11-21T03:49:47;7.10;99.90
21627;DHT22;10975;47.872;12.972;2023-11-21T03:52:14;7.10;99.90
21627;DHT22;10975;47.872;12.972;2023-11-21T03:54:40;7.10;99.90
21627;DHT22;10975;47.872;12.972;2023-11-21T03:57:07;7.00;99.90
21627;DHT22;10975;47.872;12.972;2023-11-21T03:59:34;7.00;99.90
21627;DHT22;10975;47.872;12.972;2023-11-21T04:02:01;7.10;99.90
21627;DHT22;10975;47.872;12.972;2023-11-21T04:04:27;7.10;99.90
21627;DHT22;10975;47.872;12.972;2023-11-21T04:06:54;7.10;99.90
21627;DHT22;10975;47.872;12.972;2023-11-21T04:09:21;7.10;99.90
21627;DHT22;10975;47.872;12.972;2023-11-21T04:11:52;7.10;99.90
21627;DHT22;10975;47.872;12.972;2023-11-21T04:14:19;7.10;99.90
21627;DHT22;10975;47.872;12.972;2023-11-21T04:16:45;7.10;99.90
21627;DHT22;10975;47.872;12.972;2023-11-21T04:19:12;7.00;99.90
21627;DHT22;10975;47.872;12.972;2023-11-21T04:21:43;7.10;99.90
21627;DHT22;10975;47.872;12.972;2023-11-21T04:24:10;7.10;99.90
21627;DHT22;10975;47.872;12.972;2023-11-21T04:26:37;7.00;99.90
21627;DHT22;10975;47.872;12.972;2023-11-21T04:29:04;6.90;99.90
21627;DHT22;10975;47.872;12.972;2023-11-21T04:31:31;6.80;99.90
21627;DHT22;10975;47.872;12.972;2023-11-21T04:33:58;6.80;99.90
21627;DHT22;10975;47.872;12.972;2023-11-21T04:36:25;6.90;99.90
21627;DHT22;10975;47.872;12.972;2023-11-21T04:38:52;6.90;99.90
21627;DHT22;10975;47.872;12.972;2023-11-21T04:41:18;6.90;99.90
21627;DHT22;10975;47.872;12.972;2023-11-21T04:43:45;6.90;99.90
21627;DHT22;10975;47.872;12.972;2023-11-21T04:46:12;6.90;99.90
21627;DHT22;10975;47.872;12.972;2023-11-21T04:48:39;6.90;99.90
21627;DHT22;10975;47.872;12.972;2023-11-21T04:51:06;6.90;99.90
21627;DHT22;10975;47.872;12.972;2023-11-21T04:53:33;7.00;99.90
21627;DHT22;10975;47.872;12.972;2023-11-21T04:56:01;7.10;99.90
21627;DHT22;10975;47.872;12.972;2023-11-21T04:58:27;7.10;99.90
21627;DHT22;10975;47.872;12.972;2023-11-21T05:00:54;7.10;99.90
21627;DHT22;10975;47.872;12.972;2023-11-21T05:03:21;7.10;99.90
21627;DHT22;10975;47.872;12.972;2023-11-21T05:05:50;7.10;99.90
21627;DHT22;10975;47.872;12.972;2023-11-21T05:08:17;7.10;99.90
21627;DHT22;10975;47.872;12.972;2023-11-21T05:10:45;7.10;99.90
21627;DHT22;10975;47.872;12.972;2023-11-21T05:13:12;7.10;99.90
21627;DHT22;10975;47.872;12.972;2023-11-21T05:15:39;7.10;99.90
21627;DHT22;10975;47.872;12.972;2023-11-21T05:18:06;7.10;99.90
21627;DHT22;10975;47.872;12.972;2023-11-21T05:20:33;7.10;99.90
21627;DHT22;10975;47.872;12.972;2023-11-21T05:23:00;7.20;99.90
21627;DHT22;10975;47.872;12.972;2023-11-21T05:25:27;7.20;99.90
21627;DHT22;10975;47.872;12.972;2023-11-21T05:27:53;7.20;99.90
21627;DHT22;10975;47.872;12.972;2023-11-21T05:30:25;7.20;99.90
21627;DHT22;10975;47.872;12.972;2023-11-21T05:32:52;7.20;99.90
21627;DHT22;10975;47.872;12.972;2023-11-21T05:35:20;7.20;99.90
21627;DHT22;10975;47.872;12.972;2023-11-21T05:37:47;7.30;99.90
21627;DHT22;10975;47.872;12.972;2023-11-21T05:40:14;7.30;99.90
21627;DHT22;10975;47.872;12.972;2023-11-21T05:42:41;7.30;99.90
21627;DHT22;10975;47.872;12.972;2023-11-21T05:45:08;7.40;99.90
21627;DHT22;10975;47.872;12.972;2023-11-21T05:47:39;7.40;99.90
21627;DHT22;10975;47.872;12.972;2023-11-21T05:50:08;7.40;99.90
21627;DHT22;10975;47.872;12.972;2023-11-21T05:52:39;7.40;99.90
21627;DHT22;10975;47.872;12.972;2023-11-21T05:55:09;7.40;99.90
21627;DHT22;10975;47.872;12.972;2023-11-21T05:57:36;7.40;99.90
21627;DHT22;10975;47.872;12.972;2023-11-21T06:00:04;7.40;99.90
21627;DHT22;10975;47.872;12.972;2023-11-21T06:02:40;7.30;99.90
21627;DHT22;10975;47.872;12.972;2023-11-21T06:05:08;7.30;99.90
21627;DHT22;10975;47.872;12.972;2023-11-21T06:07:35;7.30;99.90
21627;DHT22;10975;47.872;12.972;2023-11-21T06:10:02;7.30;99.90
21627;DHT22;10975;47.872;12.972;2023-11-21T06:12:32;7.30;99.90
21627;DHT22;10975;47.872;12.972;2023-11-21T06:15:02;7.30;99.90
21627;DHT22;10975;47.872;12.972;2023-11-21T06:17:31;7.40;99.90
21627;DHT22;10975;47.872;12.972;2023-11-21T06:19:58;7.40;99.90
21627;DHT22;10975;47.872;12.972;2023-11-21T06:22:25;7.40;99.90
21627;DHT22;10975;47.872;12.972;2023-11-21T06:24:52;7.40;99.90
21627;DHT22;10975;47.872;12.972;2023-11-21T06:27:19;7.40;99.90
21627;DHT22;10975;47.872;12.972;2023-11-21T06:29:46;7.40;99.90
21627;DHT22;10975;47.872;12.972;2023-11-21T06:32:13;7.40;99.90
21627;DHT22;10975;47.872;12.972;2023-11-21T06:34:43;7.40;99.90
21627;DHT22;10975;47.872;12.972;2023-11-21T06:37:10;7.40;99.90
21627;DHT22;10975;47.872;12.972;2023-11-21T06:39:37;7.40;99.90
21627;DHT22;10975;47.872;12.972;2023-11-21T06:42:04;7.40;99.90
21627;DHT22;10975;47.872;12.972;2023-11-21T06:44:31;7.40;99.90
21627;DHT22;10975;47.872;12.972;2023-11-21T06:46:59;7.40;99.90
21627;DHT22;10975;47.872;12.972;2023-11-21T06:49:26;7.40;99.90
21627;DHT22;10975;47.872;12.972;2023-11-21T06:51:53;7.50;99.90
21627;DHT22;10975;47.872;12.972;2023-11-21T06:54:21;7.40;99.90
21627;DHT22;10975;47.872;12.972;2023-11-21T06:56:49;7.50;99.90
21627;DHT22;10975;47.872;12.972;2023-11-21T06:59:16;7.50;99.90
21627;DHT22;10975;47.872;12.972;2023-11-21T07:01:42;7.50;99.90
21627;DHT22;10975;47.872;12.972;2023-11-21T07:04:09;7.50;99.90
21627;DHT22;10975;47.872;12.972;2023-11-21T07:06:36;7.60;99.90
21627;DHT22;10975;47.872;12.972;2023-11-21T07:09:04;7.50;99.90
21627;DHT22;10975;47.872;12.972;2023-11-21T07:11:30;7.50;99.90
21627;DHT22;10975;47.872;12.972;2023-11-21T07:13:57;7.50;99.90
21627;DHT22;10975;47.872;12.972;2023-11-21T07:16:24;7.50;99.90
21627;DHT22;10975;47.872;12.972;2023-11-21T07:18:51;7.50;99.90
21627;DHT22;10975;47.872;12.972;2023-11-21T07:21:18;7.60;99.90
21627;DHT22;10975;47.872;12.972;2023-11-21T07:23:46;7.60;99.90
21627;DHT22;10975;47.872;12.972;2023-11-21T07:26:12;7.60;99.90
21627;DHT22;10975;47.872;12.972;2023-11-21T07:28:39;7.60;99.90
21627;DHT22;10975;47.872;12.972;2023-11-21T07:31:06;7.60;99.90
21627;DHT22;10975;47.872;12.972;2023-11-21T07:33:33;7.60;99.90
21627;DHT22;10975;47.872;12.972;2023-11-21T07:35:59;7.60;99.90
21627;DHT22;10975;47.872;12.972;2023-11-21T07:38:26;7.70;99.90
21627;DHT22;10975;47.872;12.972;2023-11-21T07:40:54;7.70;99.90
21627;DHT22;10975;47.872;12.972;2023-11-21T07:43:21;7.80;99.90
21627;DHT22;10975;47.872;12.972;2023-11-21T07:45:48;7.80;99.90
21627;DHT22;10975;47.872;12.972;2023-11-21T07:48:16;7.80;99.90
21627;DHT22;10975;47.872;12.972;2023-11-21T07:50:42;7.80;99.90
21627;DHT22;10975;47.872;12.972;2023-11-21T07:53:10;7.80;99.90
21627;DHT22;10975;47.872;12.972;2023-11-21T07:55:36;7.80;99.90
21627;DHT22;10975;47.872;12.972;2023-11-21T07:58:03;7.90;99.90
21627;DHT22;10975;47.872;12.972;2023-11-21T08:00:30;7.90;99.90
21627;DHT22;10975;47.872;12.972;2023-11-21T08:02:57;8.00;99.90
21627;DHT22;10975;47.872;12.972;2023-11-21T08:05:24;8.00;99.90
21627;DHT22;10975;47.872;12.972;2023-11-21T08:08:02;8.10;99.90
21627;DHT22;10975;47.872;12.972;2023-11-21T08:10:29;8.10;99.90
21627;DHT22;10975;47.872;12.972;2023-11-21T08:12:56;8.10;99.90
21627;DHT22;10975;47.872;12.972;2023-11-21T08:15:23;8.20;99.90
21627;DHT22;10975;47.872;12.972;2023-11-21T08:17:50;8.20;99.90
21627;DHT22;10975;47.872;12.972;2023-11-21T08:20:17;8.20;99.90
21627;DHT22;10975;47.872;12.972;2023-11-21T08:22:44;8.20;99.90
21627;DHT22;10975;47.872;12.972;2023-11-21T08:25:11;8.20;99.90
21627;DHT22;10975;47.872;12.972;2023-11-21T08:27:39;8.30;99.90
21627;DHT22;10975;47.872;12.972;2023-11-21T08:30:06;8.30;99.90
21627;DHT22;10975;47.872;12.972;2023-11-21T08:32:33;8.40;99.90
21627;DHT22;10975;47.872;12.972;2023-11-21T08:35:00;8.40;99.90
21627;DHT22;10975;47.872;12.972;2023-11-21T08:37:28;8.40;99.90
21627;DHT22;10975;47.872;12.972;2023-11-21T08:39:57;8.50;99.90
21627;DHT22;10975;47.872;12.972;2023-11-21T08:42:24;8.50;99.90
21627;DHT22;10975;47.872;12.972;2023-11-21T08:44:51;8.50;99.90
21627;DHT22;10975;47.872;12.972;2023-11-21T08:47:18;8.50;99.90
21627;DHT22;10975;47.872;12.972;2023-11-21T08:49:45;8.50;99.90
21627;DHT22;10975;47.872;12.972;2023-11-21T08:52:12;8.50;99.90
21627;DHT22;10975;47.872;12.972;2023-11-21T08:54:39;8.50;99.90
21627;DHT22;10975;47.872;12.972;2023-11-21T08:57:06;8.60;99.90
21627;DHT22;10975;47.872;12.972;2023-11-21T08:59:32;8.60;99.90
21627;DHT22;10975;47.872;12.972;2023-11-21T09:01:59;8.70;99.90
21627;DHT22;10975;47.872;12.972;2023-11-21T09:04:26;8.80;99.90
21627;DHT22;10975;47.872;12.972;2023-11-21T09:06:53;8.90;99.90
21627;DHT22;10975;47.872;12.972;2023-11-21T09:09:20;8.90;99.90
21627;DHT22;10975;47.872;12.972;2023-11-21T09:11:47;9.00;99.90
21627;DHT22;10975;47.872;12.972;2023-11-21T09:14:15;9.00;99.90
21627;DHT22;10975;47.872;12.972;2023-11-21T09:16:44;9.10;99.90
21627;DHT22;10975;47.872;12.972;2023-11-21T09:19:11;9.10;99.90
21627;DHT22;10975;47.872;12.972;2023-11-21T09:21:38;9.00;99.90
21627;DHT22;10975;47.872;12.972;2023-11-21T09:24:05;9.00;99.90
21627;DHT22;10975;47.872;12.972;2023-11-21T09:26:32;9.00;99.90
21627;DHT22;10975;47.872;12.972;2023-11-21T09:28:59;8.90;99.90
21627;DHT22;10975;47.872;12.972;2023-11-21T09:31:26;8.80;99.90
21627;DHT22;10975;47.872;12.972;2023-11-21T09:33:54;8.90;99.90
21627;DHT22;10975;47.872;12.972;2023-11-21T09:36:26;8.90;99.90
21627;DHT22;10975;47.872;12.972;2023-11-21T09:38:54;9.00;99.90
21627;DHT22;10975;47.872;12.972;2023-11-21T09:41:25;8.80;99.90
21627;DHT22;10975;47.872;12.972;2023-11-21T09:43:56;8.80;99.90
21627;DHT22;10975;47.872;12.972;2023-11-21T09:46:26;8.80;99.90
21627;DHT22;10975;47.872;12.972;2023-11-21T09:48:54;8.80;99.90
21627;DHT22;10975;47.872;12.972;2023-11-21T09:51:22;8.80;99.90
21627;DHT22;10975;47.872;12.972;2023-11-21T09:53:53;8.80;99.90
21627;DHT22;10975;47.872;12.972;2023-11-21T09:56:20;8.90;99.90
21627;DHT22;10975;47.872;12.972;2023-11-21T09:58:51;8.90;99.90
21627;DHT22;10975;47.872;12.972;2023-11-21T10:01:18;8.90;99.90
21627;DHT22;10975;47.872;12.972;2023-11-21T10:03:45;9.00;99.90
21627;DHT22;10975;47.872;12.972;2023-11-21T10:06:13;9.10;99.90
21627;DHT22;10975;47.872;12.972;2023-11-21T10:08:43;9.10;99.90
21627;DHT22;10975;47.872;12.972;2023-11-21T10:11:21;9.20;99.90
21627;DHT22;10975;47.872;12.972;2023-11-21T10:13:54;9.20;99.90
21627;DHT22;10975;47.872;12.972;2023-11-21T10:16:21;9.20;99.90
21627;DHT22;10975;47.872;12.972;2023-11-21T10:18:49;9.20;99.90
21627;DHT22;10975;47.872;12.972;2023-11-21T10:21:19;9.20;99.90
21627;DHT22;10975;47.872;12.972;2023-11-21T10:23:46;9.20;99.90
21627;DHT22;10975;47.872;12.972;2023-11-21T10:26:13;9.20;99.90
21627;DHT22;10975;47.872;12.972;2023-11-21T10:29:00;9.20;99.90
21627;DHT22;10975;47.872;12.972;2023-11-21T10:31:27;9.20;99.90
21627;DHT22;10975;47.872;12.972;2023-11-21T10:33:54;9.20;99.90
21627;DHT22;10975;47.872;12.972;2023-11-21T10:36:28;9.20;99.90
21627;DHT22;10975;47.872;12.972;2023-11-21T10:38:55;9.20;99.90
21627;DHT22;10975;47.872;12.972;2023-11-21T10:41:21;9.30;99.90
21627;DHT22;10975;47.872;12.972;2023-11-21T10:43:48;9.30;99.90
21627;DHT22;10975;47.872;12.972;2023-11-21T10:46:15;9.40;99.90
21627;DHT22;10975;47.872;12.972;2023-11-21T10:48:42;9.40;99.90
21627;DHT22;10975;47.872;12.972;2023-11-21T10:51:09;9.40;99.90
21627;DHT22;10975;47.872;12.972;2023-11-21T10:53:39;9.40;99.90
21627;DHT22;10975;47.872;12.972;2023-11-21T10:56:10;9.20;99.90
21627;DHT22;10975;47.872;12.972;2023-11-21T10:58:44;9.30;99.90
21627;DHT22;10975;47.872;12.972;2023-11-21T11:01:11;9.20;99.90
21627;DHT22;10975;47.872;12.972;2023-11-21T11:03:41;9.30;99.90
21627;DHT22;10975;47.872;12.972;2023-11-21T11:06:08;9.30;99.90
21627;DHT22;10975;47.872;12.972;2023-11-21T11:08:38;9.40;99.90
21627;DHT22;10975;47.872;12.972;2023-11-21T11:11:06;9.50;99.90
21627;DHT22;10975;47.872;12.972;2023-11-21T11:13:33;9.50;99.90
21627;DHT22;10975;47.872;12.972;2023-11-21T11:16:01;9.60;99.90
21627;DHT22;10975;47.872;12.972;2023-11-21T11:18:33;9.60;99.90
21627;DHT22;10975;47.872;12.972;2023-11-21T11:21:07;9.60;99.90
21627;DHT22;10975;47.872;12.972;2023-11-21T11:23:54;9.70;99.90
21627;DHT22;10975;47.872;12.972;2023-11-21T11:26:36;9.80;99.90
21627;DHT22;10975;47.872;12.972;2023-11-21T11:29:14;9.80;99.90
21627;DHT22;10975;47.872;12.972;2023-11-21T11:34:48;9.70;99.90
21627;DHT22;10975;47.872;12.972;2023-11-21T11:37:17;9.70;99.90
21627;DHT22;10975;47.872;12.972;2023-11-21T11:39:44;9.60;99.90
21627;DHT22;10975;47.872;12.972;2023-11-21T11:42:12;9.60;99.90
21627;DHT22;10975;47.872;12.972;2023-11-21T11:47:16;9.60;99.90
21627;DHT22;10975;47.872;12.972;2023-11-21T11:55:03;9.70;99.90
21627;DHT22;10975;47.872;12.972;2023-11-21T11:57:31;9.90;99.90
21627;DHT22;10975;47.872;12.972;2023-11-21T12:00:12;9.90;99.90
21627;DHT22;10975;47.872;12.972;2023-11-21T12:02:49;9.90;99.90
21627;DHT22;10975;47.872;12.972;2023-11-21T12:05:17;9.80;99.90
21627;DHT22;10975;47.872;12.972;2023-11-21T12:07:47;9.80;99.90
21627;DHT22;10975;47.872;12.972;2023-11-21T12:10:15;9.70;99.90
21627;DHT22;10975;47.872;12.972;2023-11-21T12:12:45;9.70;99.90
21627;DHT22;10975;47.872;12.972;2023-11-21T12:15:12;9.70;99.90
21627;DHT22;10975;47.872;12.972;2023-11-21T12:17:41;9.70;99.90
21627;DHT22;10975;47.872;12.972;2023-11-21T12:20:08;9.70;99.90
21627;DHT22;10975;47.872;12.972;2023-11-21T12:22:42;9.70;99.90
21627;DHT22;10975;47.872;12.972;2023-11-21T12:25:10;9.70;99.90
21627;DHT22;10975;47.872;12.972;2023-11-21T12:27:43;9.60;99.90
21627;DHT22;10975;47.872;12.972;2023-11-21T12:30:11;9.60;99.90
21627;DHT22;10975;47.872;12.972;2023-11-21T12:32:40;9.60;99.90
21627;DHT22;10975;47.872;12.972;2023-11-21T12:35:10;9.60;99.90
21627;DHT22;10975;47.872;12.972;2023-11-21T12:37:38;9.60;99.90
21627;DHT22;10975;47.872;12.972;2023-11-21T12:40:05;9.60;99.90
21627;DHT22;10975;47.872;12.972;2023-11-21T12:42:33;9.50;99.90
21627;DHT22;10975;47.872;12.972;2023-11-21T12:45:33;9.50;99.90
21627;DHT22;10975;47.872;12.972;2023-11-21T12:48:01;9.50;99.90
21627;DHT22;10975;47.872;12.972;2023-11-21T12:50:30;9.40;99.90
21627;DHT22;10975;47.872;12.972;2023-11-21T12:53:01;9.40;99.90
21627;DHT22;10975;47.872;12.972;2023-11-21T12:55:30;9.40;99.90
21627;DHT22;10975;47.872;12.972;2023-11-21T12:57:57;9.30;99.90
21627;DHT22;10975;47.872;12.972;2023-11-21T13:00:34;9.30;99.90
21627;DHT22;10975;47.872;12.972;2023-11-21T13:03:04;9.30;99.90
21627;DHT22;10975;47.872;12.972;2023-11-21T13:05:38;9.30;99.90
21627;DHT22;10975;47.872;12.972;2023-11-21T13:08:06;9.40;99.90
21627;DHT22;10975;47.872;12.972;2023-11-21T13:10:43;9.50;99.90
21627;DHT22;10975;47.872;12.972;2023-11-21T13:13:13;9.40;99.90
21627;DHT22;10975;47.872;12.972;2023-11-21T13:15:50;9.30;99.90
21627;DHT22;10975;47.872;12.972;2023-11-21T13:18:17;9.20;99.90
21627;DHT22;10975;47.872;12.972;2023-11-21T13:20:43;9.20;99.90
21627;DHT22;10975;47.872;12.972;2023-11-21T13:23:10;9.20;99.90
21627;DHT22;10975;47.872;12.972;2023-11-21T13:25:42;9.20;99.90
21627;DHT22;10975;47.872;12.972;2023-11-21T13:28:19;9.20;99.90
21627;DHT22;10975;47.872;12.972;2023-11-21T13:30:48;9.20;99.90
21627;DHT22;10975;47.872;12.972;2023-11-21T13:33:15;9.30;99.90
21627;DHT22;10975;47.872;12.972;2023-11-21T13:35:48;9.30;99.90
21627;DHT22;10975;47.872;12.972;2023-11-21T13:38:17;9.30;99.90
21627;DHT22;10975;47.872;12.972;2023-11-21T13:40:51;9.30;99.90
21627;DHT22;10975;47.872;12.972;2023-11-21T13:43:21;9.30;99.90
21627;DHT22;10975;47.872;12.972;2023-11-21T13:45:48;9.30;99.90
21627;DHT22;10975;47.872;12.972;2023-11-21T13:48:25;9.30;99.90
21627;DHT22;10975;47.872;12.972;2023-11-21T13:50:58;9.30;99.90
21627;DHT22;10975;47.872;12.972;2023-11-21T13:53:27;9.30;99.90
21627;DHT22;10975;47.872;12.972;2023-11-21T13:55:54;9.30;99.90
21627;DHT22;10975;47.872;12.972;2023-11-21T13:58:22;9.30;99.90
21627;DHT22;10975;47.872;12.972;2023-11-21T14:00:52;9.30;99.90
21627;DHT22;10975;47.872;12.972;2023-11-21T14:03:25;9.30;99.90
21627;DHT22;10975;47.872;12.972;2023-11-21T14:06:07;9.20;99.90
21627;DHT22;10975;47.872;12.972;2023-11-21T14:08:40;9.20;99.90
21627;DHT22;10975;47.872;12.972;2023-11-21T14:11:08;9.20;99.90
21627;DHT22;10975;47.872;12.972;2023-11-21T14:13:37;9.20;99.90
21627;DHT22;10975;47.872;12.972;2023-11-21T14:16:06;9.20;99.90
21627;DHT22;10975;47.872;12.972;2023-11-21T14:18:33;9.20;99.90
21627;DHT22;10975;47.872;12.972;2023-11-21T14:21:10;9.10;99.90
21627;DHT22;10975;47.872;12.972;2023-11-21T14:23:37;9.10;99.90
21627;DHT22;10975;47.872;12.972;2023-11-21T14:26:05;9.00;99.90
21627;DHT22;10975;47.872;12.972;2023-11-21T14:28:34;8.90;99.90
21627;DHT22;10975;47.872;12.972;2023-11-21T14:31:03;8.90;99.90
21627;DHT22;10975;47.872;12.972;2023-11-21T14:33:30;8.90;99.90
21627;DHT22;10975;47.872;12.972;2023-11-21T14:35:57;8.90;99.90
21627;DHT22;10975;47.872;12.972;2023-11-21T14:38:24;8.90;99.90
21627;DHT22;10975;47.872;12.972;2023-11-21T14:40:51;8.90;99.90
21627;DHT22;10975;47.872;12.972;2023-11-21T14:43:18;8.80;99.90
21627;DHT22;10975;47.872;12.972;2023-11-21T14:45:46;8.80;99.90
21627;DHT22;10975;47.872;12.972;2023-11-21T14:48:15;8.80;99.90
21627;DHT22;10975;47.872;12.972;2023-11-21T14:50:43;8.80;99.90
21627;DHT22;10975;47.872;12.972;2023-11-21T14:53:10;8.80;99.90
21627;DHT22;10975;47.872;12.972;2023-11-21T14:55:39;8.70;99.90
21627;DHT22;10975;47.872;12.972;2023-11-21T14:58:12;8.70;99.90
21627;DHT22;10975;47.872;12.972;2023-11-21T15:00:42;8.70;99.90
21627;DHT22;10975;47.872;12.972;2023-11-21T15:03:15;8.70;99.90
21627;DHT22;10975;47.872;12.972;2023-11-21T15:06:04;8.60;99.90
21627;DHT22;10975;47.872;12.972;2023-11-21T15:08:51;8.60;99.90
21627;DHT22;10975;47.872;12.972;2023-11-21T15:11:24;8.60;99.90
21627;DHT22;10975;47.872;12.972;2023-11-21T15:13:57;8.60;99.90
21627;DHT22;10975;47.872;12.972;2023-11-21T15:16:25;8.50;99.90
21627;DHT22;10975;47.872;12.972;2023-11-21T15:18:54;8.50;99.90
21627;DHT22;10975;47.872;12.972;2023-11-21T15:21:21;8.50;99.90
21627;DHT22;10975;47.872;12.972;2023-11-21T15:23:48;8.50;99.90
21627;DHT22;10975;47.872;12.972;2023-11-21T15:26:15;8.50;99.90
21627;DHT22;10975;47.872;12.972;2023-11-21T15:28:42;8.60;99.90
21627;DHT22;10975;47.872;12.972;2023-11-21T15:31:09;8.60;99.90
21627;DHT22;10975;47.872;12.972;2023-11-21T15:33:35;8.60;99.90
21627;DHT22;10975;47.872;12.972;2023-11-21T15:36:03;8.60;99.90
21627;DHT22;10975;47.872;12.972;2023-11-21T15:38:30;8.60;99.90
21627;DHT22;10975;47.872;12.972;2023-11-21T15:40:57;8.60;99.90
21627;DHT22;10975;47.872;12.972;2023-11-21T15:43:25;8.60;99.90
21627;DHT22;10975;47.872;12.972;2023-11-21T15:45:53;8.60;99.90
21627;DHT22;10975;47.872;12.972;2023-11-21T15:48:19;8.60;99.90